createdAt,value
2022-09-28T00:00:47.567Z,93471.06
2022-09-28T00:03:15.188Z,93467.78
2022-09-28T00:05:42.763Z,93461.28
2022-09-28T00:08:10.336Z,93464.00
2022-09-28T00:10:38.119Z,93455.06
2022-09-28T00:13:07.739Z,93457.22
2022-09-28T00:15:35.472Z,93446.91
2022-09-28T00:18:04.487Z,93440.66
2022-09-28T00:20:32.059Z,93447.47
2022-09-28T00:23:00.667Z,93433.91
2022-09-28T00:25:28.321Z,93430.91
2022-09-28T00:27:57.267Z,93433.38
2022-09-28T00:30:24.886Z,93425.22
2022-09-28T00:32:52.778Z,93423.06
2022-09-28T00:35:21.785Z,93426.03
2022-09-28T00:37:50.882Z,93420.88
2022-09-28T00:40:18.628Z,93417.09
2022-09-28T00:42:46.222Z,93429.56
2022-09-28T00:45:13.852Z,93422.78
2022-09-28T00:47:44.929Z,93420.06
2022-09-28T00:50:18.201Z,93421.97
2022-09-28T00:52:50.268Z,93424.69
2022-09-28T00:55:21.227Z,93405.72
2022-09-28T00:57:53.246Z,93400.28
2022-09-28T01:00:21.927Z,93399.72
2022-09-28T01:02:49.557Z,93387.28
2022-09-28T01:05:18.141Z,93394.56
2022-09-28T01:07:47.646Z,93392.69
2022-09-28T01:10:15.473Z,93382.91
2022-09-28T01:12:43.021Z,93385.09
2022-09-28T01:15:10.992Z,93381.59
2022-09-28T01:17:49.191Z,93368.03
2022-09-28T01:20:29.013Z,93364.22
2022-09-28T01:23:31.552Z,93363.66
2022-09-28T01:26:25.196Z,93350.66
2022-09-28T01:28:58.139Z,93351.47
2022-09-28T01:31:28.340Z,93333.03
2022-09-28T01:33:58.691Z,93330.03
2022-09-28T01:36:29.335Z,93322.72
2022-09-28T01:38:59.219Z,93322.19
2022-09-28T01:41:28.105Z,93311.06
2022-09-28T01:43:59.505Z,93305.66
2022-09-28T01:46:30.177Z,93293.44
2022-09-28T01:48:59.003Z,93296.41
2022-09-28T01:51:31.066Z,93292.91
2022-09-28T01:54:02.931Z,93287.47
2022-09-28T01:56:35.166Z,93279.34
2022-09-28T01:59:04.724Z,93281.50
2022-09-28T02:01:37.191Z,93272.84
2022-09-28T02:04:09.464Z,93252.75
2022-09-28T02:06:38.806Z,93242.47
2022-09-28T02:09:11.737Z,93231.63
2022-09-28T02:11:40.481Z,93237.06
2022-09-28T02:14:10.986Z,93224.59
2022-09-28T02:16:41.226Z,93222.19
2022-09-28T02:19:11.554Z,93221.91
2022-09-28T02:21:43.029Z,93213.78
2022-09-28T02:24:19.333Z,93211.63
2022-09-28T02:26:50.638Z,93208.63
2022-09-28T02:29:19.659Z,93204.81
2022-09-28T02:31:47.334Z,93213.50
2022-09-28T02:34:14.974Z,93211.06
2022-09-28T02:36:44.869Z,93193.72
2022-09-28T02:39:15.143Z,93195.63
2022-09-28T02:41:53.756Z,93183.94
2022-09-28T02:44:51.780Z,93175.56
2022-09-28T02:47:28.181Z,93173.13
2022-09-28T02:50:00.472Z,93159.31
2022-09-28T02:52:47.505Z,93154.72
2022-09-28T02:55:21.289Z,93164.19
2022-09-28T02:58:01.875Z,93159.84
2022-09-28T03:00:34.815Z,93155.53
2022-09-28T03:03:10.215Z,93155.25
2022-09-28T03:05:42.673Z,93142.50
2022-09-28T03:08:16.333Z,93141.69
2022-09-28T03:10:45.861Z,93151.16
2022-09-28T03:13:14.457Z,93150.34
2022-09-28T03:15:48.608Z,93148.19
2022-09-28T03:18:17.503Z,93140.06
2022-09-28T03:20:45.116Z,93145.75
2022-09-28T03:23:24.216Z,93142.25
2022-09-28T03:25:52.650Z,93141.44
2022-09-28T03:28:21.266Z,93139.25
2022-09-28T03:30:50.188Z,93133.56
2022-09-28T03:33:18.385Z,93139.25
2022-09-28T03:35:47.664Z,93139.25
2022-09-28T03:38:15.329Z,93141.97
2022-09-28T03:40:42.954Z,93135.44
2022-09-28T03:43:10.598Z,93134.38
2022-09-28T03:45:38.222Z,93131.91
2022-09-28T03:48:07.181Z,93123.25
2022-09-28T03:50:34.739Z,93123.25
2022-09-28T03:53:05.220Z,93120.28
2022-09-28T03:55:32.809Z,93119.75
2022-09-28T03:58:00.396Z,93120.28
2022-09-28T04:00:27.995Z,93119.19
2022-09-28T04:02:55.559Z,93117.00
2022-09-28T04:05:24.619Z,93120.53
2022-09-28T04:07:53.863Z,93122.16
2022-09-28T04:10:21.484Z,93119.97
2022-09-28T04:12:49.773Z,93115.63
2022-09-28T04:15:17.373Z,93120.50
2022-09-28T04:17:44.968Z,93119.69
2022-09-28T04:20:12.570Z,93120.50
2022-09-28T04:22:41.507Z,93107.75
2022-09-28T04:25:09.933Z,93114.00
2022-09-28T04:27:55.095Z,93112.41
2022-09-28T04:30:23.170Z,93111.31
2022-09-28T04:32:50.810Z,93120.50
2022-09-28T04:35:18.593Z,93106.41
2022-09-28T04:37:47.574Z,93110.78
2022-09-28T04:40:15.389Z,93102.06
2022-09-28T04:42:43.075Z,93103.16
2022-09-28T04:45:11.619Z,93103.69
2022-09-28T04:47:39.270Z,93106.94
2022-09-28T04:50:07.947Z,93105.03
2022-09-28T04:52:37.490Z,93106.69
2022-09-28T04:55:07.494Z,93108.56
2022-09-28T04:57:35.494Z,93104.50
2022-09-28T05:00:03.285Z,93110.75
2022-09-28T05:02:30.996Z,93105.31
2022-09-28T05:04:58.942Z,93106.13
2022-09-28T05:07:26.895Z,93103.72
2022-09-28T05:09:55.252Z,93095.59
2022-09-28T05:12:24.281Z,93097.22
2022-09-28T05:14:51.886Z,93093.94
2022-09-28T05:17:19.472Z,93092.06
2022-09-28T05:19:47.121Z,93073.38
2022-09-28T05:22:15.836Z,93085.28
2022-09-28T05:24:43.647Z,93078.22
2022-09-28T05:27:11.316Z,93086.38
2022-09-28T05:29:40.333Z,93072.00
2022-09-28T05:32:08.038Z,93081.53
2022-09-28T05:34:35.742Z,93076.91
2022-09-28T05:37:03.539Z,93065.25
2022-09-28T05:39:31.310Z,93058.19
2022-09-28T05:41:59.060Z,93058.44
2022-09-28T05:44:26.942Z,93054.91
2022-09-28T05:46:56.004Z,93037.28
2022-09-28T05:49:23.871Z,93037.28
2022-09-28T05:51:51.713Z,93027.25
2022-09-28T05:54:19.625Z,93033.22
2022-09-28T05:56:47.750Z,93034.34
2022-09-28T05:59:24.664Z,93029.19
2022-09-28T06:02:17.873Z,93029.16
2022-09-28T06:04:53.636Z,93033.22
2022-09-28T06:07:22.051Z,93027.53
2022-09-28T06:09:49.898Z,93025.66
2022-09-28T06:12:17.559Z,93035.16
2022-09-28T06:14:45.280Z,93030.06
2022-09-28T06:17:14.702Z,93030.59
2022-09-28T06:19:42.530Z,93031.69
2022-09-28T06:22:11.745Z,93032.47
2022-09-28T06:24:39.704Z,93033.81
2022-09-28T06:27:07.572Z,93036.00
2022-09-28T06:29:35.367Z,93032.19
2022-09-28T06:32:03.568Z,93035.47
2022-09-28T06:34:31.465Z,93039.25
2022-09-28T06:37:01.968Z,93032.16
2022-09-28T06:39:31.266Z,93026.19
2022-09-28T06:42:04.543Z,93014.53
2022-09-28T06:44:35.925Z,93011.28
2022-09-28T06:47:06.854Z,93019.09
2022-09-28T06:49:34.632Z,93030.47
2022-09-28T06:52:02.872Z,93023.41
2022-09-28T06:54:32.260Z,93025.28
2022-09-28T06:57:02.982Z,93032.06
2022-09-28T06:59:31.477Z,93029.31
2022-09-28T07:02:22.310Z,93030.44
2022-09-28T07:04:50.386Z,93030.94
2022-09-28T07:07:18.393Z,93033.66
2022-09-28T07:09:51.245Z,93046.16
2022-09-28T07:12:25.707Z,93048.06
2022-09-28T07:14:57.411Z,93045.59
2022-09-28T07:17:25.558Z,93054.81
2022-09-28T07:20:02.304Z,93067.81
2022-09-28T07:22:43.875Z,93056.97
2022-09-28T07:26:06.545Z,93047.75
2022-09-28T07:28:51.006Z,93055.34
2022-09-28T07:31:18.966Z,93059.91
2022-09-28T07:33:56.534Z,93062.34
2022-09-28T07:36:24.392Z,93073.16
2022-09-28T07:41:59.665Z,93067.22
2022-09-28T07:44:30.285Z,93065.03
2022-09-28T07:47:05.732Z,93073.41
2022-09-28T07:49:35.392Z,93065.00
2022-09-28T07:52:19.449Z,93057.97
2022-09-28T07:56:06.782Z,93073.69
2022-09-28T07:58:50.319Z,93064.69
2022-09-28T08:01:23.037Z,93067.06
2022-09-28T08:04:48.189Z,93062.44
2022-09-28T08:13:44.210Z,93091.97
2022-09-28T08:16:26.298Z,93087.88
2022-09-28T08:18:54.354Z,93084.88
2022-09-28T08:21:57.527Z,93085.97
2022-09-28T08:24:36.575Z,93099.56
2022-09-28T08:30:47.412Z,93093.81
2022-09-28T08:33:21.010Z,93084.00
2022-09-28T08:35:49.108Z,93096.75
2022-09-28T08:38:17.076Z,93098.91
2022-09-28T08:40:51.534Z,93102.16
2022-09-28T08:43:38.214Z,93100.78
2022-09-28T08:49:26.187Z,93107.53
2022-09-28T08:52:05.756Z,93110.25
2022-09-28T08:55:10.122Z,93115.16
2022-09-28T08:57:46.525Z,93129.28
2022-09-28T09:03:31.698Z,93143.06
2022-09-28T09:06:38.791Z,93161.28
2022-09-28T09:09:31.613Z,93177.03
2022-09-28T09:12:13.962Z,93192.75
2022-09-28T09:15:11.909Z,93195.25
2022-09-28T09:17:46.560Z,93186.63
2022-09-28T09:20:36.970Z,93190.47
2022-09-28T09:23:13.693Z,93191.25
2022-09-28T09:25:59.619Z,93201.31
2022-09-28T09:29:10.113Z,93187.50
2022-09-28T09:31:57.655Z,93201.84
2022-09-28T09:34:44.931Z,93203.50
2022-09-28T09:37:36.642Z,93212.44
2022-09-28T09:40:23.305Z,93202.94
2022-09-28T09:43:02.815Z,93211.63
2022-09-28T09:45:41.609Z,93230.31
2022-09-28T09:48:45.513Z,93223.53
2022-09-28T09:51:24.958Z,93209.13
2022-09-28T09:54:00.205Z,93225.13
2022-09-28T09:56:44.198Z,93232.72
2022-09-28T09:59:15.477Z,93229.47
2022-09-28T10:04:41.701Z,93230.84
2022-09-28T10:07:17.462Z,93222.97
2022-09-28T10:09:47.580Z,93227.84
2022-09-28T10:12:25.056Z,93240.31
2022-09-28T10:14:56.479Z,93242.47
2022-09-28T10:17:27.476Z,93246.84
2022-09-28T10:19:56.978Z,93244.66
2022-09-28T10:22:28.156Z,93252.25
2022-09-28T10:24:58.775Z,93253.28
2022-09-28T10:27:56.056Z,93244.06
2022-09-28T10:33:31.047Z,93255.94
2022-09-28T10:36:00.453Z,93258.63
2022-09-28T10:38:47.627Z,93269.75
2022-09-28T10:42:02.651Z,93261.81
2022-09-28T10:48:10.869Z,93251.47
2022-09-28T10:59:03.969Z,93238.44
2022-09-28T11:01:33.439Z,93259.25
2022-09-28T11:04:04.424Z,93254.81
2022-09-28T11:09:31.386Z,93271.31
2022-09-28T11:12:22.700Z,93280.50
2022-09-28T11:14:53.024Z,93277.78
2022-09-28T11:21:15.629Z,93274.19
2022-09-28T11:24:07.516Z,93270.34
2022-09-28T11:32:59.408Z,93262.66
2022-09-28T11:35:32.302Z,93252.53
2022-09-28T11:39:21.034Z,93257.63
2022-09-28T11:42:20.670Z,93270.38
2022-09-28T11:48:25.370Z,93270.09
2022-09-28T11:51:52.256Z,93274.47
2022-09-28T11:57:07.754Z,93266.50
2022-09-28T12:19:13.059Z,93268.66
2022-09-28T12:21:28.330Z,93261.53
2022-09-28T12:24:28.621Z,93267.81
2022-09-28T12:27:44.384Z,93278.16
2022-09-28T12:33:47.482Z,93277.97
2022-09-28T12:36:47.391Z,93269.88
2022-09-28T12:52:02.404Z,93276.38
2022-09-28T13:01:47.675Z,93291.56
2022-09-28T13:04:35.240Z,93291.19
2022-09-28T13:07:08.966Z,93291.75
2022-09-28T13:09:43.339Z,93281.56
2022-09-28T13:12:21.009Z,93277.34
2022-09-28T13:15:24.054Z,93282.63
2022-09-28T13:17:59.237Z,93276.38
2022-09-28T13:20:35.868Z,93275.31
2022-09-28T13:23:15.167Z,93273.16
2022-09-28T13:25:46.202Z,93280.25
2022-09-28T13:28:16.491Z,93270.22
2022-09-28T13:30:45.218Z,93280.56
2022-09-28T13:33:18.844Z,93286.31
2022-09-28T13:35:46.708Z,93283.59
2022-09-28T13:38:47.125Z,93292.81
2022-09-28T13:41:17.732Z,93295.56
2022-09-28T13:44:11.675Z,93292.84
2022-09-28T13:46:46.248Z,93291.50
2022-09-28T13:49:28.130Z,93290.72
2022-09-28T13:52:05.258Z,93289.31
2022-09-28T13:54:50.586Z,93292.59
2022-09-28T13:57:25.477Z,93286.38
2022-09-28T14:00:19.803Z,93287.44
2022-09-28T14:02:50.250Z,93287.47
2022-09-28T14:05:45.778Z,93277.69
2022-09-28T14:08:33.701Z,93279.84
2022-09-28T14:11:43.233Z,93283.16
2022-09-28T14:14:48.690Z,93280.94
2022-09-28T14:17:54.531Z,93271.72
2022-09-28T14:20:27.488Z,93281.50
2022-09-28T14:23:30.887Z,93284.69
2022-09-28T14:26:16.036Z,93278.19
2022-09-28T14:28:54.658Z,93275.75
2022-09-28T14:31:27.387Z,93277.91
2022-09-28T14:33:58.256Z,93276.56
2022-09-28T14:36:41.290Z,93277.16
2022-09-28T14:39:38.604Z,93284.72
2022-09-28T14:42:19.640Z,93283.69
2022-09-28T14:45:35.983Z,93290.19
2022-09-28T14:48:20.326Z,93288.28
2022-09-28T14:51:52.622Z,93290.47
2022-09-28T15:01:36.777Z,93300.94
2022-09-28T15:04:10.876Z,93303.13
2022-09-28T16:10:09.716Z,93345.91
2022-09-28T16:25:15.078Z,93324.22
2022-09-28T16:28:48.909Z,93332.41
2022-09-28T16:56:17.544Z,93317.53
2022-09-28T17:02:45.154Z,93323.78
2022-09-28T17:05:10.102Z,93330.28
2022-09-28T17:07:37.901Z,93331.91
2022-09-28T17:10:13.996Z,93329.19
2022-09-28T17:12:43.055Z,93322.69
2022-09-28T17:15:10.688Z,93325.97
2022-09-28T17:17:38.450Z,93324.59
2022-09-28T17:20:16.967Z,93331.66
2022-09-28T17:22:44.650Z,93324.34
2022-09-28T17:25:13.324Z,93323.28
2022-09-28T17:27:43.632Z,93328.13
2022-09-28T17:30:13.233Z,93321.38
2022-09-28T17:32:44.832Z,93324.34
2022-09-28T17:35:24.082Z,93321.13
2022-09-28T17:37:52.536Z,93324.91
2022-09-28T17:40:21.866Z,93318.09
2022-09-28T17:42:50.804Z,93323.78
2022-09-28T17:45:18.456Z,93332.50
2022-09-28T17:47:46.268Z,93332.47
2022-09-28T17:50:21.185Z,93335.19
2022-09-28T17:52:51.942Z,93335.19
2022-09-28T17:55:21.165Z,93340.63
2022-09-28T17:57:50.567Z,93344.97
2022-09-28T18:00:18.645Z,93350.38
2022-09-28T18:02:46.384Z,93343.31
2022-09-28T18:05:15.090Z,93348.22
2022-09-28T18:07:47.561Z,93348.75
2022-09-28T18:10:16.800Z,93350.38
2022-09-28T18:12:44.419Z,93359.59
2022-09-28T18:15:14.441Z,93358.25
2022-09-28T18:17:42.572Z,93359.88
2022-09-28T18:20:11.774Z,93363.69
2022-09-28T18:22:39.539Z,93372.63
2022-09-28T18:25:08.345Z,93368.28
2022-09-28T18:27:36.033Z,93374.78
2022-09-28T18:30:05.227Z,93382.66
2022-09-28T18:32:37.356Z,93385.91
2022-09-28T18:35:05.498Z,93377.50
2022-09-28T18:37:37.331Z,93397.00
2022-09-28T18:40:06.024Z,93395.38
2022-09-28T18:42:34.791Z,93396.22
2022-09-28T18:45:02.553Z,93399.47
2022-09-28T18:47:30.216Z,93402.44
2022-09-28T18:49:59.216Z,93407.31
2022-09-28T18:52:26.996Z,93406.53
2022-09-28T18:54:54.738Z,93411.38
2022-09-28T18:57:22.604Z,93417.91
2022-09-28T18:59:50.250Z,93417.06
2022-09-28T19:02:17.982Z,93416.00
2022-09-28T19:04:45.921Z,93419.78
2022-09-28T19:07:14.989Z,93427.91
2022-09-28T19:09:44.101Z,93430.09
2022-09-28T19:12:12.168Z,93428.22
2022-09-28T19:14:39.825Z,93434.44
2022-09-28T19:17:07.580Z,93444.47
2022-09-28T19:19:35.751Z,93440.94
2022-09-28T19:22:03.495Z,93443.91
2022-09-28T19:24:32.645Z,93445.00
2022-09-28T19:27:01.212Z,93440.38
2022-09-28T19:29:28.990Z,93446.63
2022-09-28T19:31:57.083Z,93446.06
2022-09-28T19:34:26.983Z,93446.34
2022-09-28T19:36:54.637Z,93446.34
2022-09-28T19:39:22.536Z,93452.59
2022-09-28T19:41:52.478Z,93460.44
2022-09-28T19:44:25.721Z,93460.69
2022-09-28T19:46:55.238Z,93462.06
2022-09-28T19:49:23.737Z,93469.13
2022-09-28T19:52:12.654Z,93463.44
2022-09-28T19:54:42.704Z,93469.13
2022-09-28T19:57:12.395Z,93468.03
2022-09-28T19:59:40.190Z,93473.97
2022-09-28T20:02:09.103Z,93477.78
2022-09-28T20:04:36.798Z,93483.22
2022-09-28T20:07:05.155Z,93479.41
2022-09-28T20:09:32.812Z,93483.75
2022-09-28T20:12:00.436Z,93484.53
2022-09-28T20:14:33.033Z,93485.91
2022-09-28T20:17:04.231Z,93490.22
2022-09-28T20:19:31.807Z,93486.44
2022-09-28T20:22:02.853Z,93483.75
2022-09-28T20:24:31.199Z,93491.88
2022-09-28T20:26:59.234Z,93484.81
2022-09-28T20:29:26.903Z,93489.16
2022-09-28T20:31:56.674Z,93491.59
2022-09-28T20:34:24.387Z,93492.94
2022-09-28T20:36:52.010Z,93487.53
2022-09-28T20:39:19.738Z,93489.97
2022-09-28T20:41:48.972Z,93497.03
2022-09-28T20:44:16.856Z,93495.13
2022-09-28T20:46:44.743Z,93491.34
2022-09-28T20:49:13.973Z,93495.13
2022-09-28T20:51:41.709Z,93497.84
2022-09-28T20:54:09.479Z,93504.91
2022-09-28T20:56:38.749Z,93495.13
2022-09-28T20:59:08.185Z,93498.63
2022-09-28T21:01:36.199Z,93498.63
2022-09-28T21:04:06.107Z,93502.19
2022-09-28T21:06:36.323Z,93499.22
2022-09-28T21:09:04.937Z,93500.28
2022-09-28T21:11:34.175Z,93496.22
2022-09-28T21:14:03.377Z,93505.44
2022-09-28T21:16:32.689Z,93498.38
2022-09-28T21:19:00.572Z,93500.81
2022-09-28T21:21:28.349Z,93497.84
2022-09-28T21:23:58.291Z,93494.84
2022-09-28T21:26:27.816Z,93496.75
2022-09-28T21:28:55.864Z,93497.84
2022-09-28T21:31:28.828Z,93499.47
2022-09-28T21:33:57.391Z,93495.66
2022-09-28T21:36:25.603Z,93493.50
2022-09-28T21:38:53.470Z,93495.13
2022-09-28T21:41:22.515Z,93491.88
2022-09-28T21:43:50.145Z,93491.88
2022-09-28T21:46:18.542Z,93487.28
2022-09-28T21:48:46.218Z,93486.47
2022-09-28T21:51:15.261Z,93484.03
2022-09-28T21:53:42.911Z,93490.25
2022-09-28T21:56:12.135Z,93481.31
2022-09-28T21:58:41.226Z,93479.72
2022-09-28T22:01:13.075Z,93484.28
2022-09-28T22:03:40.818Z,93487.53
2022-09-28T22:06:09.545Z,93483.75
2022-09-28T22:08:38.421Z,93495.13
2022-09-28T22:11:07.400Z,93492.16
2022-09-28T22:13:36.543Z,93496.50
2022-09-28T22:16:05.649Z,93489.16
2022-09-28T22:18:34.042Z,93488.34
2022-09-28T22:21:02.337Z,93486.97
2022-09-28T22:23:30.549Z,93495.38
2022-09-28T22:26:00.006Z,93498.09
2022-09-28T22:28:27.955Z,93497.28
2022-09-28T22:30:55.619Z,93503.22
2022-09-28T22:33:25.136Z,93499.16
2022-09-28T22:35:52.823Z,93501.31
2022-09-28T22:38:21.268Z,93507.00
2022-09-28T22:40:49.325Z,93500.25
2022-09-28T22:43:17.096Z,93503.78
2022-09-28T22:45:44.746Z,93502.16
2022-09-28T22:48:12.890Z,93493.47
2022-09-28T22:50:49.034Z,93505.44
2022-09-28T22:53:16.686Z,93498.88
2022-09-28T22:55:44.515Z,93495.13
2022-09-28T22:58:12.247Z,93484.81
2022-09-28T23:00:39.913Z,93487.50
2022-09-28T23:03:07.660Z,93490.22
2022-09-28T23:05:35.472Z,93486.97
2022-09-28T23:08:04.556Z,93484.25
2022-09-28T23:10:32.331Z,93493.72
2022-09-28T23:13:01.000Z,93485.88
2022-09-28T23:15:29.523Z,93482.09
2022-09-28T23:17:57.135Z,93488.03
2022-09-28T23:20:25.312Z,93488.88
2022-09-28T23:22:52.947Z,93476.91
2022-09-28T23:25:22.019Z,93470.72
2022-09-28T23:27:50.919Z,93479.38
2022-09-28T23:30:21.617Z,93477.22
2022-09-28T23:32:49.657Z,93472.88
2022-09-28T23:35:17.393Z,93478.31
2022-09-28T23:37:45.031Z,93482.09
2022-09-28T23:40:12.704Z,93481.81
2022-09-28T23:42:41.712Z,93483.47
2022-09-28T23:45:10.711Z,93476.69
2022-09-28T23:47:38.767Z,93477.50
2022-09-28T23:50:07.754Z,93475.84
2022-09-28T23:52:35.440Z,93468.50
2022-09-28T23:55:03.093Z,93473.66
2022-09-28T23:57:30.742Z,93467.97
2022-09-28T23:59:59.729Z,93469.03
